createdAt,value
2018-12-26T00:02:33.020Z,28.03
2018-12-26T00:06:38.129Z,27.93
2018-12-26T00:10:43.202Z,28.00
2018-12-26T00:14:48.258Z,29.47
2018-12-26T00:18:53.357Z,26.07
2018-12-26T00:22:58.657Z,27.52
2018-12-26T00:27:03.801Z,24.83
2018-12-26T00:31:08.958Z,28.47
2018-12-26T00:35:14.232Z,26.50
2018-12-26T00:39:19.595Z,24.63
2018-12-26T00:43:24.729Z,26.07
2018-12-26T00:47:29.906Z,28.43
2018-12-26T00:51:35.018Z,27.33
2018-12-26T00:55:40.365Z,27.37
2018-12-26T00:59:45.325Z,23.70
2018-12-26T01:03:50.580Z,28.07
2018-12-26T01:07:55.735Z,25.10
2018-12-26T01:12:00.869Z,26.80
2018-12-26T01:16:06.029Z,26.13
2018-12-26T01:20:11.222Z,27.43
2018-12-26T01:24:16.291Z,26.57
2018-12-26T01:28:21.288Z,26.60
2018-12-26T01:32:26.602Z,26.67
2018-12-26T01:36:31.808Z,27.27
2018-12-26T01:40:36.874Z,26.20
2018-12-26T01:44:41.919Z,26.03
2018-12-26T01:48:47.094Z,24.13
2018-12-26T01:52:52.220Z,25.90
2018-12-26T01:56:57.699Z,26.90
2018-12-26T02:01:03.293Z,27.47
2018-12-26T02:05:08.417Z,26.67
2018-12-26T02:09:13.966Z,25.33
2018-12-26T02:13:19.049Z,26.37
2018-12-26T02:17:24.057Z,26.67
2018-12-26T02:21:29.125Z,26.40
2018-12-26T02:25:34.278Z,25.87
2018-12-26T02:29:39.350Z,24.70
2018-12-26T02:33:44.685Z,26.20
2018-12-26T02:37:49.790Z,25.37
2018-12-26T02:41:54.855Z,23.67
2018-12-26T02:45:59.918Z,24.37
2018-12-26T02:50:06.202Z,23.47
2018-12-26T02:54:11.257Z,25.93
2018-12-26T02:58:16.387Z,25.00
2018-12-26T03:02:21.500Z,23.83
2018-12-26T03:06:26.563Z,23.13
2018-12-26T03:10:31.572Z,24.47
2018-12-26T03:14:37.083Z,22.98
2018-12-26T03:18:42.172Z,25.40
2018-12-26T03:22:47.258Z,25.20
2018-12-26T03:26:56.323Z,22.60
2018-12-26T03:30:59.047Z,22.13
2018-12-26T03:35:04.466Z,23.17
2018-12-26T03:39:09.625Z,25.23
2018-12-26T03:48:23.596Z,23.07
2018-12-26T03:52:28.691Z,22.33
2018-12-26T03:56:33.746Z,25.93
2018-12-26T04:00:38.849Z,24.77
2018-12-26T04:04:43.911Z,21.60
2018-12-26T04:08:49.064Z,22.73
2018-12-26T04:12:54.322Z,24.70
2018-12-26T04:16:59.421Z,22.40
2018-12-26T04:21:04.520Z,24.23
2018-12-26T04:25:09.668Z,23.37
2018-12-26T04:29:14.686Z,22.17
2018-12-26T04:33:19.793Z,23.03
2018-12-26T04:37:24.845Z,22.13
2018-12-26T04:41:29.945Z,22.93
2018-12-26T04:45:34.999Z,21.87
2018-12-26T04:49:40.176Z,21.50
2018-12-26T04:53:45.210Z,21.63
2018-12-26T04:57:50.276Z,20.57
2018-12-26T05:01:55.284Z,21.63
2018-12-26T05:06:00.407Z,21.87
2018-12-26T05:10:05.656Z,20.88
2018-12-26T05:14:10.719Z,20.83
2018-12-26T05:18:15.851Z,21.23
2018-12-26T05:22:21.076Z,20.20
2018-12-26T05:26:26.251Z,19.50
2018-12-26T05:30:31.320Z,20.93
2018-12-26T05:34:36.472Z,20.40
2018-12-26T05:38:41.552Z,20.40
2018-12-26T05:42:46.643Z,19.43
2018-12-26T05:46:51.650Z,19.10
2018-12-26T05:50:56.699Z,19.50
2018-12-26T05:55:01.689Z,18.17
2018-12-26T05:59:06.747Z,17.83
2018-12-26T06:03:11.829Z,17.90
2018-12-26T06:07:16.850Z,18.57
2018-12-26T06:11:22.188Z,19.07
2018-12-26T06:15:27.317Z,16.80
2018-12-26T06:19:32.412Z,17.07
2018-12-26T06:23:37.450Z,15.97
2018-12-26T06:27:51.259Z,17.73
2018-12-26T06:31:55.050Z,17.97
2018-12-26T06:36:00.145Z,17.00
2018-12-26T06:40:05.414Z,17.27
2018-12-26T06:44:10.437Z,16.70
2018-12-26T06:48:15.497Z,16.37
2018-12-26T06:52:20.528Z,18.13
2018-12-26T06:56:25.605Z,18.07
2018-12-26T07:00:30.709Z,19.03
2018-12-26T07:04:35.785Z,19.33
2018-12-26T07:08:40.821Z,17.07
2018-12-26T07:12:45.806Z,19.07
2018-12-26T07:16:50.852Z,17.83
2018-12-26T07:20:55.814Z,18.40
2018-12-26T07:25:00.850Z,17.57
2018-12-26T07:29:05.901Z,17.23
2018-12-26T07:33:10.991Z,17.60
2018-12-26T07:37:17.461Z,17.30
2018-12-26T07:41:22.576Z,16.07
2018-12-26T07:45:28.480Z,15.73
2018-12-26T07:49:33.603Z,16.17
2018-12-26T07:53:38.745Z,15.33
2018-12-26T07:57:43.837Z,14.83
2018-12-26T08:01:49.039Z,15.73
2018-12-26T08:05:54.051Z,15.30
2018-12-26T08:09:59.083Z,14.17
2018-12-26T08:14:04.140Z,14.27
2018-12-26T08:18:28.316Z,13.63
2018-12-26T08:22:33.304Z,13.50
2018-12-26T08:26:57.579Z,12.23
2018-12-26T08:31:02.983Z,13.97
2018-12-26T08:35:07.968Z,12.73
2018-12-26T08:39:12.946Z,13.33
2018-12-26T08:43:17.996Z,13.20
2018-12-26T08:47:23.060Z,13.10
2018-12-26T08:51:28.124Z,13.07
2018-12-26T08:55:33.280Z,13.63
2018-12-26T08:59:38.329Z,13.60
2018-12-26T09:03:43.499Z,12.97
2018-12-26T09:07:48.684Z,13.00
2018-12-26T09:11:53.796Z,13.57
2018-12-26T09:15:59.001Z,13.63
2018-12-26T09:20:04.365Z,13.20
2018-12-26T09:24:09.421Z,12.07
2018-12-26T09:28:14.447Z,12.53
2018-12-26T09:32:19.512Z,12.90
2018-12-26T09:36:24.644Z,12.83
2018-12-26T09:40:29.714Z,11.93
2018-12-26T09:44:34.709Z,12.67
2018-12-26T09:48:39.581Z,12.43
2018-12-26T09:52:44.681Z,13.10
2018-12-26T09:56:49.675Z,47.63
2018-12-26T10:00:54.730Z,20.70
2018-12-26T10:04:59.751Z,17.50
2018-12-26T10:09:06.355Z,12.93
2018-12-26T10:13:11.448Z,13.97
2018-12-26T10:17:16.506Z,13.40
2018-12-26T10:21:21.573Z,13.00
2018-12-26T10:25:26.642Z,23.90
2018-12-26T10:29:31.954Z,12.83
2018-12-26T10:33:36.998Z,14.70
2018-12-26T10:37:42.019Z,12.27
2018-12-26T10:41:47.122Z,12.33
2018-12-26T10:45:52.201Z,11.50
2018-12-26T10:49:57.275Z,12.77
2018-12-26T10:54:02.353Z,12.97
2018-12-26T10:58:07.440Z,12.47
2018-12-26T11:02:12.983Z,12.60
2018-12-26T11:06:17.949Z,12.33
2018-12-26T11:10:23.040Z,13.40
2018-12-26T11:14:28.119Z,12.23
2018-12-26T11:18:33.309Z,11.93
2018-12-26T11:22:38.425Z,12.57
2018-12-26T11:26:43.575Z,18.50
2018-12-26T11:30:50.314Z,12.33
2018-12-26T11:34:55.351Z,12.20
2018-12-26T11:39:00.575Z,11.87
2018-12-26T11:43:05.917Z,10.87
2018-12-26T11:47:10.937Z,10.40
2018-12-26T11:51:16.004Z,11.37
2018-12-26T11:55:21.170Z,12.40
2018-12-26T11:59:27.405Z,11.10
2018-12-26T12:03:39.522Z,10.90
2018-12-26T12:07:44.457Z,11.37
2018-12-26T12:11:49.793Z,11.23
2018-12-26T12:15:54.863Z,11.60
2018-12-26T12:19:59.972Z,11.53
2018-12-26T12:24:05.102Z,11.23
2018-12-26T12:28:10.395Z,9.97
2018-12-26T12:32:15.538Z,10.03
2018-12-26T12:36:31.393Z,10.00
2018-12-26T12:40:55.571Z,9.83
2018-12-26T12:45:00.675Z,9.43
2018-12-26T12:49:05.788Z,9.40
2018-12-26T12:53:10.926Z,10.30
2018-12-26T12:57:16.064Z,10.83
2018-12-26T13:01:21.149Z,10.17
2018-12-26T13:05:26.311Z,10.23
2018-12-26T13:09:31.377Z,9.90
2018-12-26T13:13:36.339Z,9.27
2018-12-26T13:17:41.412Z,9.33
2018-12-26T13:21:47.521Z,10.50
2018-12-26T13:25:52.578Z,11.60
2018-12-26T13:29:57.678Z,11.13
2018-12-26T13:34:02.806Z,10.87
2018-12-26T13:38:08.139Z,11.37
2018-12-26T13:42:13.209Z,11.33
2018-12-26T13:46:18.422Z,12.30
2018-12-26T13:50:23.692Z,11.27
2018-12-26T13:54:30.380Z,12.53
2018-12-26T13:58:35.576Z,12.07
2018-12-26T14:02:40.716Z,11.90
2018-12-26T14:06:45.828Z,11.87
2018-12-26T14:10:51.091Z,12.27
2018-12-26T14:14:56.168Z,12.67
2018-12-26T14:19:01.298Z,12.00
2018-12-26T14:23:06.581Z,11.77
2018-12-26T14:27:11.644Z,11.30
2018-12-26T14:31:16.801Z,11.83
2018-12-26T14:35:21.927Z,11.73
2018-12-26T14:39:27.048Z,11.53
2018-12-26T14:43:32.075Z,11.30
2018-12-26T14:47:37.169Z,11.27
2018-12-26T14:51:42.374Z,11.13
2018-12-26T14:55:47.553Z,15.47
2018-12-26T14:59:52.589Z,11.00
2018-12-26T15:03:57.765Z,10.97
2018-12-26T15:08:02.910Z,11.20
2018-12-26T15:12:27.111Z,11.20
2018-12-26T15:16:32.365Z,11.47
2018-12-26T15:20:37.451Z,12.53
2018-12-26T15:24:42.597Z,13.67
2018-12-26T15:28:47.697Z,14.50
2018-12-26T15:32:52.826Z,15.80
2018-12-26T15:36:57.814Z,16.23
2018-12-26T15:41:02.905Z,16.67
2018-12-26T15:45:07.953Z,17.07
2018-12-26T15:49:13.124Z,16.90
2018-12-26T15:53:18.213Z,17.67
2018-12-26T15:57:23.305Z,16.33
2018-12-26T16:01:28.351Z,15.70
2018-12-26T16:05:33.498Z,15.23
2018-12-26T16:09:38.748Z,14.30
2018-12-26T16:13:43.831Z,14.10
2018-12-26T16:17:49.053Z,14.30
2018-12-26T16:21:54.246Z,16.53
2018-12-26T16:25:59.239Z,17.70
2018-12-26T16:30:04.601Z,18.67
2018-12-26T16:34:09.768Z,20.40
2018-12-26T16:38:26.649Z,16.33
2018-12-26T16:42:31.886Z,15.10
2018-12-26T16:46:36.956Z,18.93
2018-12-26T16:50:41.980Z,15.40
2018-12-26T16:54:46.974Z,14.10
2018-12-26T16:58:51.959Z,13.63
2018-12-26T17:02:57.055Z,13.23
2018-12-26T17:07:02.431Z,13.40
2018-12-26T17:11:07.485Z,14.00
2018-12-26T17:15:12.842Z,14.70
2018-12-26T17:19:18.004Z,14.33
2018-12-26T17:23:23.060Z,14.27
2018-12-26T17:27:28.091Z,13.67
2018-12-26T17:31:33.141Z,11.87
2018-12-26T17:35:38.296Z,14.57
2018-12-26T17:39:43.378Z,14.13
2018-12-26T17:43:48.407Z,14.97
2018-12-26T17:47:53.507Z,12.63
2018-12-26T17:51:58.551Z,13.70
2018-12-26T17:56:17.066Z,13.33
2018-12-26T18:01:00.279Z,13.20
2018-12-26T18:05:05.484Z,12.87
2018-12-26T18:09:10.573Z,12.87
2018-12-26T18:13:15.647Z,11.60
2018-12-26T18:17:21.737Z,12.27
2018-12-26T18:21:26.865Z,14.43
2018-12-26T18:25:31.999Z,16.67
2018-12-26T18:29:37.110Z,15.33
2018-12-26T18:33:42.214Z,13.33
2018-12-26T18:37:47.186Z,15.37
2018-12-26T18:41:52.270Z,15.73
2018-12-26T18:45:57.439Z,14.70
2018-12-26T18:50:02.563Z,15.17
2018-12-26T18:54:07.582Z,15.10
2018-12-26T18:58:12.960Z,15.33
2018-12-26T19:02:18.007Z,13.87
2018-12-26T19:06:23.231Z,16.97
2018-12-26T19:10:28.132Z,13.87
2018-12-26T19:14:33.491Z,15.20
2018-12-26T19:18:38.783Z,14.90
2018-12-26T19:22:43.820Z,16.27
2018-12-26T19:26:48.745Z,15.80
2018-12-26T19:30:55.479Z,14.20
2018-12-26T19:35:00.629Z,15.30
2018-12-26T19:39:07.327Z,12.90
2018-12-26T19:43:12.280Z,14.90
2018-12-26T19:47:17.369Z,16.07
2018-12-26T19:51:22.503Z,16.17
2018-12-26T19:55:27.710Z,16.13
2018-12-26T19:59:32.779Z,16.10
2018-12-26T20:03:37.841Z,14.97
2018-12-26T20:12:12.880Z,17.10
2018-12-26T20:16:17.979Z,15.67
2018-12-26T20:20:23.009Z,14.90
2018-12-26T20:24:28.073Z,14.70
2018-12-26T20:28:33.087Z,17.67
2018-12-26T20:32:38.161Z,15.77
2018-12-26T20:36:43.240Z,18.50
2018-12-26T20:40:48.340Z,17.13
2018-12-26T20:44:53.435Z,18.17
2018-12-26T20:48:58.943Z,13.93
2018-12-26T20:53:04.018Z,15.23
2018-12-26T20:57:09.476Z,17.03
2018-12-26T21:01:14.592Z,18.07
2018-12-26T21:05:19.633Z,16.10
2018-12-26T21:09:24.681Z,14.00
2018-12-26T21:13:29.731Z,14.50
2018-12-26T21:17:34.740Z,14.57
2018-12-26T21:21:39.891Z,14.93
2018-12-26T21:25:46.713Z,16.17
2018-12-26T21:29:51.807Z,17.40
2018-12-26T21:33:56.886Z,16.17
2018-12-26T21:38:01.935Z,16.50
2018-12-26T21:42:07.032Z,15.67
2018-12-26T21:46:12.100Z,15.20
2018-12-26T21:50:17.174Z,16.60
2018-12-26T21:54:22.319Z,16.33
2018-12-26T21:58:27.416Z,15.07
2018-12-26T22:02:32.532Z,14.13
2018-12-26T22:06:37.661Z,12.87
2018-12-26T22:10:42.760Z,14.90
2018-12-26T22:14:47.793Z,15.73
2018-12-26T22:18:52.879Z,14.57
2018-12-26T22:22:58.023Z,13.80
2018-12-26T22:27:03.075Z,12.97
2018-12-26T22:31:08.131Z,13.63
2018-12-26T22:35:13.208Z,15.60
2018-12-26T22:39:18.270Z,15.47
2018-12-26T22:43:23.431Z,14.50
2018-12-26T22:47:28.559Z,16.63
2018-12-26T22:51:42.072Z,14.07
2018-12-26T22:55:53.257Z,14.73
2018-12-26T22:59:58.606Z,16.23
2018-12-26T23:04:03.773Z,16.00
2018-12-26T23:08:08.807Z,17.80
2018-12-26T23:12:13.968Z,15.63
2018-12-26T23:16:19.046Z,17.40
2018-12-26T23:20:24.144Z,18.37
2018-12-26T23:24:29.208Z,18.03
2018-12-26T23:28:34.207Z,15.67
2018-12-26T23:32:46.734Z,17.53
2018-12-26T23:36:51.399Z,15.33
2018-12-26T23:40:56.419Z,15.57
2018-12-26T23:45:01.485Z,15.45
2018-12-26T23:49:06.537Z,13.77
2018-12-26T23:53:11.596Z,14.73
2018-12-26T23:57:16.727Z,15.17
